Etusivu
METAR-TAF:

METAR-TAF

Lentoasemat :

Natchez-Adams County Airport (Hardy-Anders Field)

Natchez, Mississippi, Yhdysvallat

Leveyspiiri: 31-37N, Pituuspiiri: 091-18W, korkeus merenpinnasta: 83 m

Tämänhetkinen sää

Tämä raportti tehtiin 28 minuuttia sitten, kello 16.56 UTC
Tuuli 4 kn lännestä/lounaasta
Lämpötila 15°C
Kosteus 48%
Ilmanpaine 1015 hPa
Näkyvyys: 16.1 km
selkeää

METAR: KHEZ 181656Z AUTO 25004KT 10SM CLR 15/04 A2998 RMK AO2 SLP153 T01500044

Aika: 11:24 (17:24 UTC)


TAF: puuttuu

Säähavainnot ja -ennusteet yli 4000 lentoasemalta (METAR- ja TAF-raportit).

Käytössä olevat sääasemat on merkitty karttaan keltaisilla ja punaisilla pisteillä.

Aseta hiiri pisteen päälle nähdäksesi sääaseman nimen.

Klikkaa sitten nähdäksesi säähavainnot ja -ennusteet.

Kartan vaihtaminen: klikkaa mustalla rastilla varustettuja vihreitä pisteitä, niin voit zoomata sisään; viivalla varustettua vihreää pistettä, niin voit zoomata ulos tai vihreitä nuolia, niin pääset viereisille kartoille.


METAR-TAF: